Fallon, Nevada
Current Conditions -  °F | °C
As of 3:56 PM on Thursday 27 Nov 2014 (Local Time) from KNFL Reporting Station
Clear Clear  
Wind Chill: 62°   Ceiling: Unl
Heat Index: 62°   Visibility: 10mi
Dew Point: 25°   Wind: 5mph
Humidity: 24%   Direction: 70°ENE
Pressure: 30.12"   Gusts: NA
Location:  39.47°N, 118.77°W
Report Text: KNFL 272356Z AUTO 07004KT 10SM CLR 17/M04 A3012 RMK AO2 SLP166 T01671039 10194 20133 56015
Loading
Personal Weather Stations






























Interactive Weather Map New forecast layout! Learn more

10-Day Weather Forecast

Advertisements
Track Severe Weather on mobile